< < Back
Terminal Aerodrome Forecast


Current Version              Previous Versions:   1  2  3  4  5  6  7  8  9  

Terminal Aerodrome Forecast

369
FTUS42 KTAE 230526
TAFABY
TAF
KABY 230526Z 2306/2406 VRB03KT P6SM SCT250
     FM231800 22007KT P6SM FEW040 SCT250
     FM240000 20004KT P6SM FEW250=



Latest METAR

590
SAUS70 KWBC 230900 RRJ
MTRABY
METAR KABY 230853Z AUTO 16003KT 9SM CLR 23/22 A3003 RMK AO2 SLP165
T02330217 56012


USA.gov is the U.S. government's official web portal to all federal, state and local government web resources and services.